createdAt,value
2023-04-19T00:01:25.299Z,16.90
2023-04-19T00:03:52.152Z,17.02
2023-04-19T00:06:18.999Z,16.98
2023-04-19T00:08:45.587Z,16.94
2023-04-19T00:11:12.207Z,16.97
2023-04-19T00:13:38.732Z,16.98
2023-04-19T00:16:05.891Z,16.97
2023-04-19T00:18:32.415Z,16.76
2023-04-19T00:20:58.968Z,16.84
2023-04-19T00:23:25.927Z,16.84
2023-04-19T00:25:52.490Z,16.80
2023-04-19T00:28:19.008Z,16.82
2023-04-19T00:30:45.618Z,16.89
2023-04-19T00:33:15.100Z,16.74
2023-04-19T00:35:42.243Z,16.80
2023-04-19T00:38:08.875Z,16.73
2023-04-19T00:40:37.366Z,16.82
2023-04-19T00:43:04.773Z,16.88
2023-04-19T00:45:33.564Z,16.70
2023-04-19T00:48:01.415Z,16.82
2023-04-19T00:50:28.693Z,16.75
2023-04-19T00:52:57.512Z,16.72
2023-04-19T00:55:25.202Z,16.81
2023-04-19T00:57:52.105Z,16.74
2023-04-19T01:00:20.155Z,16.56
2023-04-19T01:02:48.004Z,16.83
2023-04-19T01:05:14.945Z,16.84
2023-04-19T01:07:43.159Z,16.64
2023-04-19T01:10:10.311Z,16.78
2023-04-19T01:12:36.974Z,16.71
2023-04-19T01:15:04.001Z,16.72
2023-04-19T01:17:33.033Z,16.63
2023-04-19T01:20:04.104Z,16.68
2023-04-19T01:22:31.888Z,16.68
2023-04-19T01:24:58.867Z,16.75
2023-04-19T01:27:25.597Z,16.77
2023-04-19T01:29:52.249Z,16.80
2023-04-19T01:32:18.970Z,16.79
2023-04-19T01:34:45.574Z,16.81
2023-04-19T01:37:12.148Z,16.80
2023-04-19T01:39:40.381Z,16.66
2023-04-19T01:42:07.237Z,16.73
2023-04-19T01:44:33.840Z,16.82
2023-04-19T01:47:00.569Z,16.80
2023-04-19T01:49:27.193Z,16.77
2023-04-19T01:51:53.831Z,16.77
2023-04-19T01:54:20.536Z,16.77
2023-04-19T01:56:49.560Z,16.70
2023-04-19T01:59:16.330Z,16.70
2023-04-19T02:01:42.933Z,16.60
2023-04-19T02:04:10.520Z,16.58
2023-04-19T02:06:37.155Z,16.62
2023-04-19T02:09:04.302Z,16.59
2023-04-19T02:11:30.951Z,16.66
2023-04-19T02:13:57.493Z,16.50
2023-04-19T02:16:24.143Z,16.39
2023-04-19T02:18:50.751Z,16.39
2023-04-19T02:21:18.177Z,16.37
2023-04-19T02:23:44.771Z,16.28
2023-04-19T02:26:11.524Z,16.17
2023-04-19T02:28:39.100Z,16.16
2023-04-19T02:31:06.410Z,16.23
2023-04-19T02:33:35.253Z,16.09
2023-04-19T02:36:01.890Z,16.06
2023-04-19T02:38:28.486Z,16.10
2023-04-19T02:40:55.050Z,16.00
2023-04-19T02:43:21.642Z,16.05
2023-04-19T02:45:48.311Z,15.91
2023-04-19T02:48:14.884Z,15.98
2023-04-19T02:50:41.394Z,16.06
2023-04-19T02:53:08.136Z,16.04
2023-04-19T02:55:34.729Z,16.02
2023-04-19T02:58:06.671Z,15.99
2023-04-19T03:00:38.110Z,16.04
2023-04-19T03:03:10.019Z,16.09
2023-04-19T03:05:36.860Z,16.01
2023-04-19T03:08:03.543Z,16.05
2023-04-19T03:10:30.353Z,16.05
2023-04-19T03:12:56.905Z,16.02
2023-04-19T03:15:23.646Z,15.97
2023-04-19T03:17:50.391Z,15.91
2023-04-19T03:20:20.744Z,15.98
2023-04-19T03:22:47.529Z,16.01
2023-04-19T03:25:14.393Z,16.01
2023-04-19T03:27:45.584Z,16.02
2023-04-19T03:30:14.302Z,15.93
2023-04-19T03:32:42.950Z,15.87
2023-04-19T03:35:11.518Z,15.91
2023-04-19T03:37:38.516Z,15.60
2023-04-19T03:40:05.962Z,15.84
2023-04-19T03:42:34.129Z,15.77
2023-04-19T03:45:12.006Z,15.69
2023-04-19T03:47:43.797Z,15.80
2023-04-19T03:50:10.685Z,15.78
2023-04-19T03:52:38.727Z,15.74
2023-04-19T03:55:06.054Z,15.86
2023-04-19T03:57:39.489Z,15.90
2023-04-19T04:00:16.858Z,15.90
2023-04-19T04:02:47.551Z,15.71
2023-04-19T04:05:15.040Z,15.70
2023-04-19T04:07:42.026Z,15.75
2023-04-19T04:10:09.051Z,15.80
2023-04-19T04:12:41.050Z,15.81
2023-04-19T04:15:10.024Z,15.74
2023-04-19T04:17:41.270Z,15.74
2023-04-19T04:20:08.916Z,15.80
2023-04-19T04:22:39.786Z,15.78
2023-04-19T04:25:06.971Z,15.82
2023-04-19T04:27:37.484Z,15.80
2023-04-19T04:30:06.290Z,15.86
2023-04-19T04:32:35.810Z,15.97
2023-04-19T04:35:04.024Z,15.86
2023-04-19T04:37:40.205Z,15.81
2023-04-19T04:40:08.931Z,15.85
2023-04-19T04:42:35.648Z,15.80
2023-04-19T04:45:02.327Z,15.69
2023-04-19T04:47:34.728Z,15.73
2023-04-19T04:50:05.948Z,15.71
2023-04-19T04:52:32.562Z,15.71
2023-04-19T04:55:11.012Z,15.59
2023-04-19T04:57:42.217Z,15.57
2023-04-19T05:00:14.076Z,15.39
2023-04-19T05:02:50.578Z,15.63
2023-04-19T05:05:17.302Z,15.75
2023-04-19T05:07:43.984Z,15.62
2023-04-19T05:10:11.073Z,15.57
2023-04-19T05:12:44.055Z,15.64
2023-04-19T05:15:12.004Z,15.45
2023-04-19T05:17:43.074Z,15.67
2023-04-19T05:20:10.109Z,15.71
2023-04-19T05:22:37.442Z,15.70
2023-04-19T05:25:06.324Z,15.76
2023-04-19T05:27:33.017Z,15.85
2023-04-19T05:29:59.883Z,15.77
2023-04-19T05:32:27.481Z,15.79
2023-04-19T05:34:57.476Z,15.75
2023-04-19T05:37:27.052Z,15.73
2023-04-19T05:39:53.614Z,15.72
2023-04-19T05:42:20.574Z,15.70
2023-04-19T05:44:47.099Z,15.73
2023-04-19T05:47:13.918Z,15.70
2023-04-19T05:49:55.064Z,15.61
2023-04-19T05:52:41.888Z,15.66
2023-04-19T05:55:08.538Z,15.60
2023-04-19T05:57:40.298Z,15.84
2023-04-19T06:00:09.512Z,15.82
2023-04-19T06:02:57.935Z,15.84
2023-04-19T06:05:24.777Z,15.75
2023-04-19T06:07:55.547Z,15.80
2023-04-19T06:10:36.771Z,15.87
2023-04-19T06:13:16.164Z,15.86
2023-04-19T06:15:43.228Z,15.78
2023-04-19T06:18:10.294Z,15.83
2023-04-19T06:20:46.688Z,15.76
2023-04-19T06:23:14.685Z,15.76
2023-04-19T06:25:41.309Z,15.86
2023-04-19T06:28:07.920Z,15.73
2023-04-19T06:30:34.436Z,15.83
2023-04-19T06:33:01.153Z,15.72
2023-04-19T06:35:27.805Z,15.73
2023-04-19T06:37:54.363Z,15.80
2023-04-19T06:40:21.033Z,15.86
2023-04-19T06:42:47.570Z,15.71
2023-04-19T06:45:15.983Z,15.85
2023-04-19T06:47:42.576Z,15.87
2023-04-19T06:50:10.671Z,15.92
2023-04-19T06:52:38.485Z,15.99
2023-04-19T06:55:07.025Z,15.95
2023-04-19T06:57:33.562Z,16.00
2023-04-19T07:00:00.197Z,16.00
2023-04-19T07:02:26.941Z,16.08
2023-04-19T07:04:53.637Z,15.96
2023-04-19T07:07:20.173Z,15.94
2023-04-19T07:09:46.756Z,15.98
2023-04-19T07:12:13.271Z,16.05
2023-04-19T07:14:39.789Z,15.99
2023-04-19T07:17:06.310Z,16.02
2023-04-19T07:19:33.057Z,16.07
2023-04-19T07:21:59.835Z,16.13
2023-04-19T07:24:27.887Z,16.09
2023-04-19T07:26:54.505Z,16.22
2023-04-19T07:29:21.137Z,16.22
2023-04-19T07:31:47.865Z,16.15
2023-04-19T07:34:14.867Z,16.17
2023-04-19T07:36:41.517Z,16.18
2023-04-19T07:39:08.342Z,16.09
2023-04-19T07:41:36.112Z,16.13
2023-04-19T07:44:03.126Z,16.24
2023-04-19T07:46:30.104Z,16.38
2023-04-19T07:48:56.707Z,16.27
2023-04-19T07:51:24.536Z,16.23
2023-04-19T07:53:51.173Z,16.36
2023-04-19T07:56:19.611Z,16.43
2023-04-19T07:58:50.910Z,16.61
2023-04-19T08:01:23.579Z,16.64
2023-04-19T08:03:50.325Z,16.87
2023-04-19T08:06:17.970Z,17.04
2023-04-19T08:08:44.533Z,17.15
2023-04-19T08:11:11.090Z,17.21
2023-04-19T08:13:37.903Z,17.26
2023-04-19T08:18:35.920Z,17.33
2023-04-19T08:21:02.552Z,17.45
2023-04-19T08:23:34.937Z,17.45
2023-04-19T08:26:08.100Z,17.73
2023-04-19T08:28:34.646Z,17.58
2023-04-19T08:31:01.198Z,17.66
2023-04-19T08:33:28.900Z,17.35
2023-04-19T08:35:55.446Z,17.36
2023-04-19T08:38:22.047Z,17.51
2023-04-19T08:40:52.700Z,17.45
2023-04-19T08:43:19.905Z,17.51
2023-04-19T08:45:50.491Z,17.66
2023-04-19T08:48:18.920Z,17.80
2023-04-19T08:51:03.536Z,17.62
2023-04-19T08:53:34.276Z,17.81
2023-04-19T09:01:04.955Z,18.40
2023-04-19T09:03:38.552Z,18.11
2023-04-19T09:06:12.050Z,17.95
2023-04-19T09:08:39.844Z,18.03
2023-04-19T09:11:06.691Z,17.98
2023-04-19T09:13:34.091Z,18.06
2023-04-19T09:16:00.976Z,18.28
2023-04-19T09:18:30.401Z,18.07
2023-04-19T09:20:58.149Z,18.19
2023-04-19T09:23:27.318Z,18.26
2023-04-19T09:26:19.468Z,18.52
2023-04-19T09:28:56.279Z,18.62
2023-04-19T09:31:39.047Z,18.66
2023-04-19T09:34:17.846Z,18.98
2023-04-19T09:36:44.815Z,19.02
2023-04-19T09:39:12.103Z,18.94
2023-04-19T09:41:52.957Z,18.96
2023-04-19T09:45:01.801Z,19.01
2023-04-19T09:47:24.571Z,19.14
2023-04-19T09:50:22.860Z,19.09
2023-04-19T09:52:52.630Z,19.17
2023-04-19T09:57:49.184Z,19.43
2023-04-19T10:00:16.069Z,19.50
2023-04-19T10:02:44.958Z,19.51
2023-04-19T10:05:20.681Z,19.53
2023-04-19T10:07:49.704Z,19.51
2023-04-19T10:10:22.567Z,19.65
2023-04-19T10:15:25.115Z,19.45
2023-04-19T10:17:52.782Z,19.59
2023-04-19T10:20:25.234Z,20.31
2023-04-19T10:22:51.912Z,19.83
2023-04-19T10:25:18.671Z,20.38
2023-04-19T10:27:51.274Z,20.53
2023-04-19T10:30:26.983Z,20.30
2023-04-19T10:32:56.548Z,20.64
2023-04-19T10:35:25.853Z,20.75
2023-04-19T10:38:13.275Z,21.38
2023-04-19T10:40:52.399Z,21.34
2023-04-19T10:43:19.892Z,20.94
2023-04-19T10:45:47.592Z,20.68
2023-04-19T10:48:26.401Z,20.49
2023-04-19T10:51:11.421Z,20.67
2023-04-19T10:53:51.811Z,19.81
2023-04-19T10:56:35.536Z,19.84
2023-04-19T10:59:10.195Z,20.92
2023-04-19T11:01:47.316Z,20.91
2023-04-19T11:04:43.859Z,20.60
2023-04-19T11:07:13.313Z,19.60
2023-04-19T11:09:45.198Z,18.96
2023-04-19T11:12:13.976Z,18.61
2023-04-19T11:14:42.866Z,18.58
2023-04-19T11:17:19.380Z,18.39
2023-04-19T11:19:56.829Z,18.17
2023-04-19T11:22:37.552Z,18.00
2023-04-19T11:25:08.744Z,18.11
2023-04-19T11:27:36.096Z,18.36
2023-04-19T11:30:08.180Z,18.43
2023-04-19T11:32:35.490Z,18.06
2023-04-19T11:35:08.136Z,18.26
2023-04-19T11:37:36.565Z,18.20
2023-04-19T11:40:07.675Z,17.96
2023-04-19T11:42:34.707Z,17.55
2023-04-19T11:45:01.978Z,17.71
2023-04-19T11:47:28.923Z,17.75
2023-04-19T11:49:58.706Z,17.60
2023-04-19T11:52:26.358Z,17.71
2023-04-19T11:54:53.597Z,17.77
2023-04-19T11:57:30.634Z,17.91
2023-04-19T12:00:11.009Z,17.87
2023-04-19T12:02:46.442Z,17.77
2023-04-19T12:05:15.489Z,16.91
2023-04-19T12:08:17.655Z,17.01
2023-04-19T12:10:57.509Z,16.86
2023-04-19T12:13:25.633Z,16.88
2023-04-19T12:15:52.745Z,16.57
2023-04-19T12:18:19.355Z,16.54
2023-04-19T12:20:48.292Z,16.16
2023-04-19T12:23:16.239Z,16.55
2023-04-19T12:25:46.064Z,16.64
2023-04-19T12:28:13.673Z,16.72
2023-04-19T12:30:40.712Z,16.58
2023-04-19T12:33:08.211Z,16.31
2023-04-19T12:35:35.982Z,16.08
2023-04-19T12:38:03.309Z,15.70
2023-04-19T12:40:30.672Z,15.61
2023-04-19T12:42:57.336Z,16.15
2023-04-19T12:45:24.018Z,16.22
2023-04-19T12:47:50.840Z,16.31
2023-04-19T12:50:17.436Z,16.40
2023-04-19T12:52:44.704Z,16.35
2023-04-19T12:55:11.401Z,16.54
2023-04-19T12:57:37.920Z,16.20
2023-04-19T13:00:06.077Z,15.67
2023-04-19T13:02:34.898Z,15.86
2023-04-19T13:05:05.001Z,16.24
2023-04-19T13:07:31.699Z,16.39
2023-04-19T13:09:58.248Z,15.48
2023-04-19T13:12:24.840Z,15.75
2023-04-19T13:14:52.570Z,16.08
2023-04-19T13:17:20.233Z,15.97
2023-04-19T13:19:47.470Z,15.99
2023-04-19T13:22:14.325Z,15.97
2023-04-19T13:24:40.892Z,16.21
2023-04-19T13:27:08.893Z,16.31
2023-04-19T13:29:36.307Z,16.37
2023-04-19T13:32:03.206Z,16.51
2023-04-19T13:34:29.765Z,16.47
2023-04-19T13:36:57.598Z,16.44
2023-04-19T13:39:24.314Z,16.32
2023-04-19T13:41:51.240Z,16.42
2023-04-19T13:44:18.189Z,16.44
2023-04-19T13:46:45.143Z,16.29
2023-04-19T13:49:11.802Z,16.09
2023-04-19T13:51:49.614Z,16.23
2023-04-19T13:54:18.151Z,16.27
2023-04-19T13:56:50.533Z,16.19
2023-04-19T13:59:18.139Z,16.08
2023-04-19T14:01:44.884Z,16.11
2023-04-19T14:04:11.555Z,16.10
2023-04-19T14:06:38.306Z,15.61
2023-04-19T14:09:04.842Z,15.59
2023-04-19T14:11:33.005Z,15.81
2023-04-19T14:13:59.601Z,15.85
2023-04-19T14:16:26.204Z,15.70
2023-04-19T14:18:52.923Z,15.64
2023-04-19T14:21:19.760Z,15.88
2023-04-19T14:23:46.585Z,15.78
2023-04-19T14:26:13.217Z,15.37
2023-04-19T14:28:39.747Z,14.81
2023-04-19T14:31:06.320Z,14.86
2023-04-19T14:33:33.304Z,14.61
2023-04-19T14:36:00.000Z,14.65
2023-04-19T14:38:26.533Z,15.12
2023-04-19T14:40:53.464Z,15.07
2023-04-19T14:43:20.050Z,14.98
2023-04-19T14:45:49.675Z,14.91
2023-04-19T14:48:16.389Z,14.94
2023-04-19T14:50:42.996Z,14.69
2023-04-19T14:53:09.757Z,14.65
2023-04-19T14:55:39.296Z,14.61
2023-04-19T14:58:05.922Z,14.25
2023-04-19T15:00:33.617Z,14.61
2023-04-19T15:03:01.426Z,14.47
2023-04-19T15:05:28.395Z,14.25
2023-04-19T15:07:55.346Z,14.27
2023-04-19T15:10:21.886Z,14.39
2023-04-19T15:12:48.482Z,14.48
2023-04-19T15:15:15.004Z,14.45
2023-04-19T15:17:42.815Z,13.87
2023-04-19T15:20:09.582Z,13.75
2023-04-19T15:22:36.295Z,13.53
2023-04-19T15:25:03.561Z,12.54
2023-04-19T15:27:30.309Z,13.16
2023-04-19T15:29:56.827Z,13.09
2023-04-19T15:32:23.439Z,12.49
2023-04-19T15:34:50.049Z,13.25
2023-04-19T15:37:16.618Z,12.92
2023-04-19T15:39:43.947Z,13.17
2023-04-19T15:42:10.584Z,13.13
2023-04-19T15:44:37.342Z,12.94
2023-04-19T15:47:04.025Z,13.16
2023-04-19T15:49:30.917Z,13.44
2023-04-19T15:52:03.463Z,13.47
2023-04-19T15:54:30.939Z,13.62
2023-04-19T15:56:57.646Z,13.60
2023-04-19T15:59:24.221Z,13.50
2023-04-19T16:01:50.867Z,13.68
2023-04-19T16:04:17.770Z,13.71
2023-04-19T16:06:44.709Z,13.72
2023-04-19T16:09:11.397Z,13.39
2023-04-19T16:11:39.073Z,13.64
2023-04-19T16:14:07.826Z,13.71
2023-04-19T16:16:34.911Z,13.77
2023-04-19T16:19:02.184Z,13.66
2023-04-19T16:21:30.399Z,13.40
2023-04-19T16:23:58.092Z,13.61
2023-04-19T16:26:26.050Z,13.08
2023-04-19T16:28:52.987Z,13.09
2023-04-19T16:31:19.535Z,12.93
2023-04-19T16:33:46.204Z,13.14
2023-04-19T16:36:12.820Z,13.10
2023-04-19T16:38:39.342Z,12.77
2023-04-19T16:41:05.972Z,12.82
2023-04-19T16:43:32.722Z,12.62
2023-04-19T16:45:59.368Z,12.72
2023-04-19T16:48:26.928Z,12.22
2023-04-19T16:50:53.614Z,12.62
2023-04-19T16:53:20.324Z,12.87
2023-04-19T16:55:46.851Z,12.99
2023-04-19T16:58:14.308Z,12.99
2023-04-19T17:00:41.071Z,12.42
2023-04-19T17:03:09.960Z,12.15
2023-04-19T17:05:36.782Z,12.17
2023-04-19T17:08:03.389Z,12.17
2023-04-19T17:10:30.128Z,12.09
2023-04-19T17:12:57.048Z,12.69
2023-04-19T17:15:23.782Z,12.64
2023-04-19T17:17:50.434Z,12.77
2023-04-19T17:20:17.048Z,12.65
2023-04-19T17:22:43.667Z,12.78
2023-04-19T17:25:10.339Z,12.56
2023-04-19T17:27:36.918Z,12.97
2023-04-19T17:30:04.204Z,12.77
2023-04-19T17:32:31.207Z,13.00
2023-04-19T17:34:57.728Z,13.03
2023-04-19T17:37:24.308Z,12.91
2023-04-19T17:39:50.964Z,13.07
2023-04-19T17:42:17.550Z,12.83
2023-04-19T17:44:44.145Z,12.82
2023-04-19T17:47:10.748Z,12.84
2023-04-19T17:49:37.315Z,12.93
2023-04-19T17:52:04.022Z,12.98
2023-04-19T17:54:30.574Z,12.65
2023-04-19T17:56:59.232Z,12.79
2023-04-19T17:59:25.755Z,12.80
2023-04-19T18:01:52.348Z,12.87
2023-04-19T18:04:20.094Z,12.89
2023-04-19T18:06:46.918Z,12.96
2023-04-19T18:09:14.016Z,12.99
2023-04-19T18:11:40.804Z,13.02
2023-04-19T18:14:07.336Z,13.04
2023-04-19T18:16:34.036Z,12.97
2023-04-19T18:19:00.650Z,13.00
2023-04-19T18:21:27.452Z,13.14
2023-04-19T18:23:54.696Z,13.00
2023-04-19T18:26:24.113Z,13.13
2023-04-19T18:28:50.727Z,13.00
2023-04-19T18:31:17.240Z,13.12
2023-04-19T18:33:43.767Z,13.10
2023-04-19T18:36:10.989Z,13.00
2023-04-19T18:38:37.696Z,13.05
2023-04-19T18:41:04.465Z,13.13
2023-04-19T18:43:31.553Z,12.80
2023-04-19T18:45:59.070Z,12.81
2023-04-19T18:48:28.120Z,12.76
2023-04-19T18:50:55.173Z,12.95
2023-04-19T18:53:21.719Z,13.02
2023-04-19T18:55:48.544Z,13.06
2023-04-19T18:58:15.389Z,13.10
2023-04-19T19:00:41.927Z,12.98
2023-04-19T19:03:15.878Z,12.98
2023-04-19T19:05:55.548Z,12.96
2023-04-19T19:08:22.368Z,12.99
2023-04-19T19:11:14.312Z,13.01
2023-04-19T19:13:35.914Z,13.10
2023-04-19T19:16:02.662Z,13.18
2023-04-19T19:18:29.559Z,13.10
2023-04-19T19:21:03.116Z,13.12
2023-04-19T19:23:35.730Z,13.22
2023-04-19T19:26:03.696Z,13.15
2023-04-19T19:28:30.299Z,13.17
2023-04-19T19:30:56.867Z,13.14
2023-04-19T19:33:24.046Z,13.14
2023-04-19T19:35:50.697Z,13.21
2023-04-19T19:38:17.247Z,13.21
2023-04-19T19:41:20.726Z,13.13
2023-04-19T19:43:30.259Z,13.24
2023-04-19T19:45:56.850Z,13.08
2023-04-19T19:48:23.577Z,13.11
2023-04-19T19:51:17.348Z,13.18
2023-04-19T19:53:36.721Z,13.22
2023-04-19T19:56:13.044Z,13.14
2023-04-19T19:58:49.705Z,13.08
2023-04-19T20:01:18.229Z,13.09
2023-04-19T20:03:45.156Z,13.16
2023-04-19T20:06:57.207Z,13.13
2023-04-19T20:08:59.725Z,13.05
2023-04-19T20:11:26.391Z,13.20
2023-04-19T20:13:52.965Z,13.00
2023-04-19T20:16:19.641Z,13.01
2023-04-19T20:18:48.964Z,12.96
2023-04-19T20:21:16.944Z,13.04
2023-04-19T20:23:43.485Z,12.78
2023-04-19T20:26:09.995Z,12.65
2023-04-19T20:28:36.569Z,12.63
2023-04-19T20:31:03.174Z,12.78
2023-04-19T20:33:29.736Z,12.78
2023-04-19T20:35:59.630Z,12.82
2023-04-19T20:38:29.085Z,12.82
2023-04-19T20:40:56.379Z,12.77
2023-04-19T20:43:22.983Z,12.88
2023-04-19T20:45:49.672Z,12.88
2023-04-19T20:48:17.621Z,12.89
2023-04-19T20:50:44.251Z,12.85
2023-04-19T20:53:10.833Z,12.70
2023-04-19T20:55:38.194Z,12.77
2023-04-19T20:58:04.926Z,12.61
2023-04-19T21:00:31.506Z,12.72
2023-04-19T21:02:58.177Z,12.70
2023-04-19T21:05:24.803Z,12.84
2023-04-19T21:07:51.662Z,12.60
2023-04-19T21:10:18.571Z,12.64
2023-04-19T21:12:45.162Z,12.81
2023-04-19T21:15:12.162Z,12.85
2023-04-19T21:17:39.238Z,12.81
2023-04-19T21:20:11.988Z,12.84
2023-04-19T21:22:43.173Z,12.94
2023-04-19T21:25:10.803Z,12.89
2023-04-19T21:27:37.712Z,12.76
2023-04-19T21:30:08.334Z,12.85
2023-04-19T21:32:34.914Z,12.94
2023-04-19T21:35:01.863Z,12.85
2023-04-19T21:37:28.566Z,12.67
2023-04-19T21:39:55.280Z,12.64
2023-04-19T21:42:21.817Z,12.77
2023-04-19T21:44:48.445Z,12.72
2023-04-19T21:47:14.976Z,12.75
2023-04-19T21:49:41.596Z,12.88
2023-04-19T21:52:08.185Z,12.91
2023-04-19T21:54:34.921Z,12.88
2023-04-19T21:57:02.068Z,12.90
2023-04-19T21:59:30.714Z,12.93
2023-04-19T22:01:58.501Z,12.79
2023-04-19T22:04:25.210Z,12.91
2023-04-19T22:06:51.807Z,12.69
2023-04-19T22:09:18.512Z,12.61
2023-04-19T22:11:45.757Z,12.66
2023-04-19T22:14:12.743Z,12.71
2023-04-19T22:16:39.395Z,12.72
2023-04-19T22:19:05.950Z,12.81
2023-04-19T22:21:32.711Z,12.69
2023-04-19T22:23:59.291Z,12.63
2023-04-19T22:26:26.670Z,12.62
2023-04-19T22:28:54.276Z,12.81
2023-04-19T22:31:20.799Z,12.78
2023-04-19T22:33:47.386Z,12.72
2023-04-19T22:36:13.891Z,12.81
2023-04-19T22:38:40.487Z,12.82
2023-04-19T22:41:07.054Z,12.92
2023-04-19T22:43:33.600Z,12.85
2023-04-19T22:46:01.021Z,12.83
2023-04-19T22:48:29.951Z,12.71
2023-04-19T22:50:56.718Z,12.67
2023-04-19T22:53:23.794Z,12.82
2023-04-19T22:55:51.296Z,12.85
2023-04-19T22:58:19.083Z,12.91
2023-04-19T23:00:45.980Z,12.87
2023-04-19T23:03:12.564Z,12.88
2023-04-19T23:05:40.107Z,12.92
2023-04-19T23:08:07.151Z,12.92
2023-04-19T23:10:37.796Z,12.88
2023-04-19T23:13:05.841Z,12.94
2023-04-19T23:15:33.013Z,13.06
2023-04-19T23:18:02.138Z,13.09
2023-04-19T23:20:29.220Z,13.08
2023-04-19T23:22:55.759Z,12.99
2023-04-19T23:25:22.578Z,13.11
2023-04-19T23:27:50.267Z,13.10
2023-04-19T23:30:18.000Z,13.10
2023-04-19T23:32:44.539Z,13.12
2023-04-19T23:35:11.311Z,12.99
2023-04-19T23:37:37.966Z,12.98
2023-04-19T23:40:06.271Z,12.86
2023-04-19T23:42:32.841Z,12.98
2023-04-19T23:44:59.363Z,12.95
2023-04-19T23:47:26.083Z,13.02
2023-04-19T23:49:52.636Z,13.08
2023-04-19T23:52:22.496Z,13.05
2023-04-19T23:54:49.517Z,13.08
2023-04-19T23:57:16.052Z,13.15
2023-04-19T23:59:42.834Z,13.07
